Byron, CA

11:29 PM PDT on October 25, 2014 (GMT -0700)
#1 Wuzzy Place | Change Station
CLOSE
Current Station
Personal Weather Station
Location: Discovery Bay, CA
Elevation: -3 ft
Nearby Weather Stations

Elev -3 ft 37.89 °N, 121.59 °W | Updated 1 second ago

Partly Cloudy
Partly Cloudy
58.5 °F
Feels Like 58.5 °F
N
0.0
Wind Variable Wind from SE
Gusts 1.0 mph

Today
High -- | Low -- °F
--% Chance of Precip.
Yesterday
High -- | Low -- °F
Precip. -- in
7:24 AM 6:15 PM
Waxing Crescent, 6% visible
Pressure 30.13 in
Visibility 10.0 miles
Clouds Scattered Clouds 1900 ft
Dew Point 54 °F
Humidity 85%
Rainfall 0.02 in
Snow Depth Not available.
UV 0 out of 12
Pollen .10 out of 12
Ozone Good
PM2.5 Good
Flu Activity Sporadic
METAR KLVK 260553Z AUTO 26003KT 10SM SCT019 14/13 A3014 RMK AO2 SLP203 60002 T01390128 10206 20139 53014 $

More Conditions Fewer Conditions

Pressure 30.13 in
Visibility 10.0 miles
Clouds Scattered Clouds 1900 ft
Dew Point 54 °F
Humidity 85%
Rainfall 0.02 in
Snow Depth Not available.
UV 0 out of 12
Pollen .10 out of 12
Ozone Good
PM2.5 Good
Flu Activity Sporadic
METAR KLVK 260553Z AUTO 26003KT 10SM SCT019 14/13 A3014 RMK AO2 SLP203 60002 T01390128 10206 20139 53014 $

More Conditions Fewer Conditions

10-Day Weather Forecast

Almanac

Astronomy

Oct. 25, 2014 Rise Set
Actual Time 7:24 AM PDT 6:15 PM PDT
Civil Twilight 6:57 AM PDT 6:42 PM PDT
Nautical Twilight 6:27 AM PDT 7:13 PM PDT
Astronomical Twilight 5:56 AM PDT 7:43 PM PDT
Moon 9:07 AM PDT (10/25) 7:44 PM PDT (10/25)
Length of Visible Light 11h 44m
Length of Day
10h 50m
Tomorrow will be 2m 14s shorter.
Waxing Crescent, 6% of the Moon is Illuminated
Oct 26
Waxing Crescent
Oct 30
First Quarter
Nov 6
Full
Nov 14
Last Quarter
Nov 22
New

Community

WunderPhotos

Upload Photos

1,765,114 photos uploaded!

Nearby

Air Quality

  Air Quality AQ Index Pollutant
Yesterday Good
OZONE
Yesterday Good
PM2.5
Current Good
PM2.5
Current Good
OZONE
Saturday Good
OZONE
Sunday Good
OZONE
Monday Good
PM2.5
Tuesday Good
PM2.5
Wednesday Good
PM2.5

Snow Depth

Station Depth Elevation
Blue Lakes 0 in 8000 ft
Carson Pass 1 in 8500 ft
Echo Peak 3 in 7800 ft
Ebbetts Pass 3 in 8700 ft
Burnside Lake 2 in 8139 ft

Earthquake Activity

City Distance Mag. Time & Date
Antioch, California 16 miles 2.7 6:42 AM PDT
2014-10-25
Deer Park, California 64 miles 2.8 6:40 AM PDT
2014-10-25
Coalinga, California 144 miles 2.5 11:01 PM PDT
2014-10-24
Minimum magnitude displayed is 2.5.

Coastal Water Temperatures

Place Temperature
San Francisco, CA 64.0 °F
Richmond, CA 64.9 °F
Port Chicago, CA 64.9 °F

Nearby Weather Stations